Weather observations for the past three days for
Perryton, Perryton Ochiltree County Airport
Imperial (Metric)
Date Time (cdt) Wind (mph) Vis. (mi.) Weather Sky Cond. Temperature (ºF) Relative Humidity Wind Chill (°F) Heat Index (°F) Pressure Precipitation (in)
Air Dwpt 6 hour altimeter (in) sea level (mb) 1 hr 3 hr 6 hr
Max. Min.
09 18:35 W 17 10.00 Fair CLR 90.3 37.6 16% 86 29.73 0.0
09 18:15 W 10 G 16 10.00 Fair CLR 89.1 36.9 16% 85 29.72 0.0
09 17:55 S 8 10.00 Partly Cloudy SCT110 90.1 39 17% 86 29.72 0.0
09 17:35 S 13 10.00 Partly Cloudy SCT120 91.8 39.9 16% 88 29.72 0.0
09 17:15 S 9 G 16 10.00 Partly Cloudy SCT120 91.4 39.4 16% 87 29.73 0.0
09 16:55 S 13 G 18 10.00 Partly Cloudy SCT110 92.5 38.7 15% 88 29.73 0.0
09 16:35 S 6 G 20 10.00 Fair CLR 91 37.9 15% 87 29.75 0.0
09 16:15 S 15 G 23 10.00 Fair CLR 91 37.9 15% 87 29.76 0.0
09 15:55 SW 12 G 23 10.00 Partly Cloudy SCT120 91.4 35.2 14% 87 29.77 0.0
09 15:35 S 8 G 24 10.00 Fair CLR 90.3 36.1 15% 86 29.78 0.0
09 15:15 S 13 G 22 10.00 Fair CLR 89.8 35.6 15% 86 29.79 0.0
09 14:55 SW 12 G 23 10.00 Fair CLR 89.2 36.1 15% 85 29.81 0.0
09 14:35 S 17 G 26 10.00 Fair CLR 89.2 37.6 16% 85 29.81 0.0
09 14:15 SW 14 G 24 10.00 Fair CLR 88.9 40.5 18% 85 29.82 0.0
09 13:55 S 15 G 22 10.00 Fair CLR 88 43.9 21% 85 29.83 0.0
09 13:35 S 14 G 26 10.00 Fair CLR 86.2 42.8 22% 83 29.84 0.0
09 13:15 S 15 G 22 10.00 Fair CLR 84.7 45.9 26% 82 29.85 0.0
09 12:55 S 14 G 23 10.00 Fair CLR 84.6 44.1 84.9 56.1 24% 82 29.87 0.0
09 12:35 S 10 G 21 10.00 Fair CLR 83.7 41.9 23% 81 29.88 0.0
09 12:15 S 14 G 21 10.00 Fair CLR 82.8 43.2 25% 81 29.88 0.0
09 11:55 S 10 10.00 Fair CLR 81.5 46.4 29% 80 29.89 0.0
09 11:35 SW 12 G 17 10.00 Fair CLR 79.9 48.7 34% 79 29.9 0.0
09 11:15 SW 9 G 16 10.00 Fair CLR 77.4 48.9 37% 78 29.9 0.0
09 10:55 S 9 G 17 10.00 Fair CLR 76.3 50.9 41% 78 29.9 0.0
09 10:35 SW 10 G 16 10.00 Fair CLR 74.3 52 46% 29.91 0.0
09 10:15 SW 10 10.00 Fair CLR 72.3 53.6 52% 29.91 0.0
09 09:55 SW 10 10.00 Fair CLR 70.9 50 48% 29.91 0.0
09 09:35 SW 10 G 16 10.00 Fair CLR 68.9 48.6 48% 29.92 0.0
09 09:15 S 12 10.00 Fair CLR 67.8 49.1 51% 29.92 0.0
09 08:55 S 7 10.00 Fair CLR 66.2 47.5 51% 29.92 0.0
09 08:35 SW 8 10.00 Fair CLR 63.7 45.1 51% 29.92 0.0
09 08:15 SW 3 10.00 Fair CLR 60.3 43.5 54% 29.92 0.0
09 07:55 SW 5 10.00 Fair CLR 58.5 43.2 57% 29.93 0.0
09 02:15 E 7 10.00 Fair CLR 51.8 37.2 58% 29.92 0.0
09 01:55 E 7 10.00 Fair CLR 55.2 37.8 52% 29.92 0.0
09 01:35 E 7 10.00 Fair CLR 53.6 37.4 54% 29.93 0.0
09 01:15 E 6 10.00 Fair CLR 53.8 37.6 54% 29.93 0.0
09 00:55 SE 5 10.00 Fair CLR 54.5 37.8 81.1 54.5 53% 29.94 0.0
09 00:35 E 8 10.00 Fair CLR 56.1 37.6 50% 29.93 0.0
09 00:15 E 7 10.00 Fair CLR 55 37.4 52% 29.93 0.0
08 23:55 NE 8 10.00 Fair CLR 57 36 45% 29.92 0.0
08 23:35 NE 9 10.00 Fair CLR 59.4 36.7 43% 29.92 0.0
08 23:15 NE 9 10.00 Fair CLR 61.5 36.7 40% 29.92 0.0
08 22:55 NE 7 10.00 Fair CLR 62.4 37 39% 29.92 0.0
08 22:40 NE 7 10.00 NULL NULL 61 36.3 40% 29.91 0.0
08 22:15 NE 5 10.00 Fair CLR 64.4 36 35% 29.9 0.0
08 21:55 NE 6 10.00 Fair CLR 65.7 36.7 34% 29.89 0.0
08 21:35 NE 7 10.00 Fair CLR 68.7 37.2 32% 29.88 0.0
08 21:15 N 8 10.00 Fair CLR 67.1 36.9 33% 29.88 0.0
08 20:55 N 6 10.00 Fair CLR 69.4 37 31% 29.87 0.0
08 20:35 N 7 10.00 Fair CLR 73 37.6 28% 29.86 0.0
08 20:15 N 13 10.00 Fair CLR 76.1 37.4 25% 77 29.86 0.0
08 19:55 N 15 10.00 Fair CLR 77.9 37.2 23% 78 29.85 0.0
08 19:35 N 14 G 22 10.00 Fair CLR 79.3 36.7 22% 78 29.84 0.0
08 19:15 N 14 G 17 10.00 Fair CLR 80.2 37.8 22% 79 29.84 0.0
08 18:55 N 14 G 25 10.00 Fair CLR 81.1 37.8 83.5 77 21% 79 29.85 0.0
08 18:35 NW 14 G 25 10.00 Fair CLR 81.7 38.5 21% 80 29.84 0.0
08 18:15 N 17 G 24 10.00 Fair CLR 81.5 39.4 22% 80 29.84 0.0
08 17:55 NW 15 G 28 10.00 Partly Cloudy SCT090 82.4 39.9 22% 80 29.84 0.0
08 17:35 NW 15 G 24 10.00 Partly Cloudy SCT090 83.3 39.6 21% 81 29.84 0.0
08 17:15 N 21 G 26 10.00 Fair and Breezy CLR 82.9 40.5 22% 81 29.84 0.0
08 16:55 NW 14 G 22 10.00 Fair CLR 82.9 40.3 22% 81 29.84 0.0
08 16:35 N 21 G 26 10.00 Fair and Breezy CLR 82.2 40.5 23% 80 29.84 0.0
08 16:15 N 17 G 24 10.00 Fair CLR 81.3 41.9 25% 80 29.85 0.0
08 15:55 N 10 G 24 10.00 Fair CLR 82 41.4 24% 80 29.86 0.0
08 15:35 N 10 G 24 10.00 Partly Cloudy SCT080 81.9 41 23% 80 29.86 0.0
08 15:15 N 12 G 26 10.00 Partly Cloudy SCT080 81.1 42.1 25% 80 29.86 0.0
08 14:55 N 18 G 24 10.00 Fair CLR 81.3 41.5 24% 80 29.87 0.0
08 14:35 N 15 G 25 10.00 Fair CLR 81.1 40.8 24% 79 29.87 0.0
08 14:15 N 14 G 22 10.00 Fair CLR 80.4 41.9 25% 79 29.86 0.0
08 13:55 N 15 G 24 10.00 Fair CLR 79.9 40.5 25% 79 29.87 0.0
08 13:35 N 14 G 23 10.00 Fair CLR 77.5 42.1 28% 78 29.88 0.0
08 13:15 NE 15 G 26 10.00 Fair CLR 77.2 41.7 28% 78 29.88 0.0
08 12:55 N 17 G 26 10.00 Fair CLR 76.8 41 77.5 54 28% 77 29.88 0.0
08 12:35 N 13 G 23 10.00 Fair CLR 77.2 41 27% 78 29.88 0.0
08 12:15 NE 18 G 26 10.00 Fair CLR 75.9 39.4 27% 77 29.88 0.0
08 11:55 N 16 G 30 10.00 Fair CLR 75.9 36.3 24% 77 29.88 0.0
08 11:35 N 12 G 21 10.00 Fair CLR 75 37 25% 77 29.88 0.0
08 11:15 NW 12 10.00 Fair CLR 74.8 38.3 27% 29.88 0.0
08 10:55 W 9 10.00 Fair CLR 71.1 42.3 35% 29.88 0.0
08 10:35 W 10 G 17 10.00 Fair CLR 69.4 42.6 38% 29.88 0.0
08 10:15 W 12 10.00 Fair CLR 67.5 44.6 44% 29.88 0.0
08 09:55 SW 9 10.00 Fair CLR 65.1 45.5 49% 29.87 0.0
08 09:35 SW 12 10.00 Fair CLR 64.6 45 49% 29.88 0.0
08 09:15 SW 12 10.00 Fair CLR 64 45.3 51% 29.88 0.0
08 08:55 SW 8 10.00 Fair CLR 61 45.3 57% 29.88 0.0
08 08:35 SW 8 10.00 Fair CLR 58.6 44.4 59% 29.88 0.0
08 08:15 W 5 10.00 Fair CLR 57.2 44.1 62% 29.88 0.0
08 07:55 SW 7 10.00 Fair CLR 56.5 43.7 62% 29.88 0.0
08 07:35 S 6 10.00 Fair CLR 55.6 43.2 63% 29.86 0.0
08 07:15 S 7 10.00 Fair CLR 55 43 64% 29.86 0.0
08 06:55 S 7 10.00 Fair CLR 54 42.6 56.5 48.7 66% 29.85 0.0
08 06:35 S 9 10.00 Fair CLR 53.8 42.1 65% 29.85 0.0
08 06:15 S 10 10.00 Fair CLR 53.1 41.9 66% 29.85 0.0
08 05:55 S 8 10.00 Fair CLR 51.4 41.5 69% 29.85 0.0
08 05:35 S 8 10.00 Fair CLR 49.5 41 73% 47 29.85 0.0
08 05:15 S 8 10.00 Fair CLR 48.7 41 75% 46 29.85 0.0
08 04:55 S 9 10.00 Fair CLR 50 41.2 72% 47 29.85 0.0
08 04:35 S 8 10.00 Fair CLR 50.2 41.2 71% 29.86 0.0
08 04:15 S 8 10.00 Fair CLR 51.8 41.5 68% 29.85 0.0
08 03:55 S 8 10.00 Fair CLR 52.7 41.7 66% 29.85 0.0
08 03:35 S 9 10.00 Fair CLR 53.6 41.9 65% 29.86 0.0
08 03:15 S 9 10.00 Fair CLR 52.7 41.5 66% 29.86 0.0
08 02:55 S 8 10.00 Fair CLR 52.5 41.2 65% 29.87 0.0
08 02:35 S 9 10.00 Fair CLR 53.8 41.4 63% 29.88 0.0
08 02:15 S 9 10.00 Fair CLR 52.5 40.6 64% 29.89 0.0
08 01:55 S 10 10.00 Fair CLR 54 40.5 60% 29.89 0.0
08 01:35 S 12 10.00 Fair CLR 55.9 40.1 55% 29.9 0.0
08 01:15 S 10 10.00 Fair CLR 55.9 39.4 54% 29.9 0.0
08 00:55 S 9 10.00 Fair CLR 53.8 38.7 76.1 50.7 57% 29.9 0.0
08 00:35 S 10 10.00 Fair CLR 55.9 38.3 52% 29.91 0.0
08 00:15 S 10 10.00 Fair CLR 57.6 37 46% 29.91 0.0
07 23:55 SE 13 10.00 Fair CLR 55.2 36.9 50% 29.91 0.0
07 23:35 S 8 10.00 Fair CLR 52.9 35.6 52% 29.91 0.0
07 23:15 S 8 10.00 Fair CLR 52.3 36.1 54% 29.91 0.0
07 22:55 S 8 10.00 Fair CLR 53.4 35.8 51% 29.92 0.0
07 22:35 S 8 10.00 Fair CLR 52.5 35.8 53% 29.92 0.0
07 22:15 S 9 10.00 Fair CLR 54.9 35.6 48% 29.92 0.0
07 21:55 S 9 10.00 Fair CLR 56.5 35.6 46% 29.91 0.0
07 21:35 S 7 10.00 Fair CLR 58.6 36.9 44% 29.91 0.0
07 21:15 S 5 10.00 Fair CLR 62.8 36.5 38% 29.91 0.0
07 20:55 S 8 10.00 Fair CLR 63.7 35.2 35% 29.91 0.0
07 20:35 S 6 10.00 Fair CLR 67.5 34 29% 29.9 0.0
07 20:15 S 6 10.00 Fair CLR 70.2 33.4 26% 29.9 0.0
07 19:55 SW 7 10.00 Fair CLR 73.8 31.6 21% 29.89 0.0
07 19:35 SW 8 10.00 Fair CLR 74.8 32.4 21% 29.89 0.0
07 19:15 SW 8 10.00 Fair CLR 75.9 32.4 20% 76 29.89 0.0
07 18:55 W 9 10.00 Fair CLR 76.1 32.5 77.2 69.6 20% 77 29.89 0.0
07 18:35 SW 7 10.00 Fair CLR 76.6 32.5 20% 77 29.9 0.0
07 18:15 SW 9 G 13 10.00 Fair CLR 75.9 33.1 21% 76 29.9 0.0
07 17:55 SW 14 G 18 10.00 Fair CLR 76.3 34.5 22% 77 29.9 0.0
07 17:35 SW 8 10.00 Fair CLR 76.1 35.2 23% 77 29.9 0.0
07 17:15 S 10 10.00 Fair CLR 76.5 35.8 23% 77 29.9 0.0
07 16:55 W 9 10.00 Fair CLR 76.5 36.7 24% 77 29.92 0.0
07 16:35 SW 8 10.00 Fair CLR 76.3 36.9 24% 77 29.92 0.0
07 16:15 SW 16 G 20 10.00 Fair CLR 75.7 37.9 26% 77 29.93 0.0
07 15:55 SW 15 G 24 10.00 Fair CLR 75.6 37.2 25% 77 29.95 0.0
07 15:35 W 8 G 21 10.00 Fair CLR 75 37 25% 77 29.96 0.0
07 15:15 SW 14 G 20 10.00 Fair CLR 74.7 38.5 27% 29.97 0.0
07 14:55 SW 17 G 22 10.00 Fair CLR 74.1 37.6 27% 29.97 0.0
07 14:35 SW 12 G 18 10.00 Fair CLR 73.9 37 26% 29.98 0.0
07 14:15 SW 16 G 22 10.00 Fair CLR 73.2 38.7 29% 29.99 0.0
07 13:55 SW 16 G 24 10.00 Fair CLR 72.5 41.4 33% 30 0.0
07 13:35 W 16 G 24 10.00 Fair CLR 71.6 41.2 33% 30.01 0.0
07 13:15 SW 17 G 24 10.00 Fair CLR 71.1 41.9 35% 30.01 0.0
07 12:55 SW 18 G 24 10.00 Fair CLR 69.3 43.3 39% 30.02 0.0
07 12:35 SW 21 G 28 10.00 Fair and Breezy CLR 68.2 44.8 43% 30.03 0.0
07 12:15 SW 18 G 24 10.00 Fair CLR 66.4 44.8 46% 30.04 0.0
07 11:55 SW 22 G 29 10.00 Breezy NULL 65.1 44.8 48% 30.05 0.0
07 11:35 W 21 0.00 Breezy NULL 64.2 45 50% 30.06 0.0
07 11:15 Calm 0.00 NULL NULL 62.1 44.8 53% 0 0.0
07 10:50 SW 22 0.00 Breezy NULL 59.7 45 58% 30.07 0.0
07 10:35 SW 18 G 24 10.00 Fair CLR 58.3 45.3 62% 30.08 0.0
07 10:15 SW 17 G 22 10.00 Fair CLR 55.9 44.1 65% 30.09 0.0
07 09:55 SW 18 G 25 10.00 Fair CLR 54.1 42.4 65% 30.08 0.0
07 09:35 SW 22 G 25 10.00 Fair and Breezy CLR 51.8 42.1 70% 30.08 0.0
07 09:15 SW 18 G 22 10.00 Fair CLR 49.1 41.7 76% 43 30.09 0.0
07 08:55 SW 16 G 21 10.00 Fair CLR 46.8 40.8 80% 41 30.1 0.0
07 08:35 SW 14 G 22 10.00 Fair CLR 45 40.6 85% 39 30.1 0.0
07 08:15 SW 14 10.00 Fair CLR 42.8 39.4 88% 36 30.1 0.0
07 07:55 SW 14 7.00 Fair CLR 40.6 38.3 91% 34 30.1 0.0
07 07:35 SW 10 7.00 Fair CLR 38.1 36.7 95% 32 30.11 0.0
07 07:15 SW 9 7.00 Fair CLR 36 34.7 95% 30 30.11 0.0
07 06:55 SW 7 7.00 Fair CLR 34.9 33.8 41.7 33.3 96% 30 30.11 0.0
07 06:35 SW 7 7.00 Fair CLR 33.8 32.9 97% 28 30.1 0.0
07 06:15 SW 7 5.00 Fair CLR 33.6 32.5 96% 28 30.11 0.0
07 05:55 SW 8 7.00 Fair CLR 34.7 33.3 94% 29 30.11 0.0
07 05:35 SW 6 7.00 Fair CLR 36 34.5 95% 32 30.11 0.0
07 05:15 W 7 10.00 Fair CLR 36.5 35.4 96% 32 30.12 0.0
07 04:55 W 6 7.00 Fair CLR 35.6 34.7 97% 31 30.13 0.0
07 04:35 W 6 5.00 Fair CLR 36.1 35.2 97% 32 30.13 0.0
07 04:15 W 6 7.00 Fair CLR 37.4 36.1 95% 33 30.13 0.0
07 03:55 W 6 7.00 Fair CLR 37.2 36.3 97% 33 30.13 0.0
07 03:35 W 6 7.00 Fair CLR 37.4 36.5 97% 33 30.14 0.0
07 03:15 W 6 7.00 Fair CLR 37.8 36.9 97% 34 30.15 0.0
07 02:55 W 6 5.00 Fair CLR 38.3 37.4 97% 34 30.15 0.0
07 02:35 W 6 5.00 Fair CLR 37.8 36.9 97% 34 30.16 0.0
07 02:15 W 5 5.00 Fair CLR 39 38.1 97% 36 30.16 0.0
07 01:55 W 6 5.00 Fair CLR 39.7 38.8 97% 36 30.16 0.0
07 01:35 W 5 5.00 Fair CLR 41 39.7 95% 38 30.17 0.0
06 22:50 NW 5 7.00 Mostly Cloudy BKN046 BKN055 45.1 41.9 88% 43 30.15 0.0
06 22:35 NW 6 7.00 Mostly Cloudy SCT024 SCT029 BKN055 45.1 41.4 87% 43 30.15 0.0
06 22:15 N 3 5.00 Overcast SCT024 BKN036 OVC050 45.9 40.6 82% 30.15 0.0
06 21:55 NW 7 10.00 Overcast BKN038 OVC050 48.2 37.4 66% 46 30.16 0.0
06 21:35 N 12 10.00 Overcast OVC038 49.3 35.6 59% 45 30.15 0.0
06 21:15 N 10 10.00 Overcast OVC038 50 35.1 57% 46 30.15 0.0
06 20:55 N 12 10.00 Overcast OVC038 50 35.2 57% 46 30.12 0.0
06 20:35 N 8 10.00 Overcast BKN038 OVC047 50.5 34.7 55% 30.12 0.0
06 20:15 N 8 10.00 Overcast BKN047 BKN055 OVC120 50.5 34.7 55% 30.1 0.0
06 19:55 N 7 10.00 Mostly Cloudy SCT040 BKN120 50.9 34.9 54% 30.07 0.0
06 19:35 N 9 10.00 Partly Cloudy SCT040 50.7 34.7 54% 30.06 0.0
06 19:15 NE 7 10.00 Partly Cloudy SCT042 SCT100 52.2 35.2 53% 30.06 0.0
06 18:55 NE 9 10.00 Mostly Cloudy SCT042 SCT050 BKN100 52.5 35.1 54 48.7 52% 30.07 0.0
Date Time (cdt) Wind (mph) Vis. (mi.) Weather Sky Cond. Air Dwpt Max. Min. Relative Humidity Wind Chill (°F) Heat Index (°F) altimeter (in) sea level (mb) 1 hr 3 hr 6 hr
6 hour
Temperature (ºF) Pressure Precipitation (in)